My Meet Scores
Amy Winter, Gym Stars ETC - MyMeetScores.com
Top100 | Top Teams | Upcoming Meets | Completed Meets | Latest | Add Scores | Help| Support | Bookmark and Share

Amy Winter, Gym Stars ETC
Personal Bests
LevelVault BarsBeamFloorAA
GB9.0509.250 8.4009.22535.925
XG9.6009.725 9.6509.62538.250
XP9.5759.525 9.4259.72537.950
XG:B9.0759.075 9.4009.35036.900
Meet Scores
Date Meet Team Session Level Division Vault Bars Beam Floor AA
2020-02-14 Midwest Open Gym Stars ETC 10 XP Senior A 9.475 2 9.525 3 9.300 2 9.425 4 37.725 3
2020-01-24 Uga Invitational Gym Stars ETC 7A XP Senior 9.375 1 9.500 1 9.150 4T 9.300 4 37.325 1
2020-01-10 St Jude Benefit Meet Gym Stars ETC 6C XP Sr B 9.450 1 9.375 1 8.300 11 9.725 1 36.850 3
2019-12-20 2019 Women's Hawaiian Pineapple Classic Gym Stars ETC 3B XP Ages 13+ 9.575 1 9.350 1 9.425 1 9.600 1 37.950 1
2019-11-08 Illinois Judges Cup Gym Stars ETC P7 XP All Ages 8.950 13T 9.450 1 9.100 4 9.650 1 37.150 1
2019-05-03 2019 Region 5 Xcel Championships Team Justify IL 05D XG All Ages 9.425 25T 9.450 26T 9.375 29T 9.425 20T 37.675 19T
2019-04-05 2019 Illinois XG, XP, XD State Championships Gym Stars ETC 8 XG Sr F 9.400 4T 9.725 3 9.600 1T 9.525 6 38.250 3
2019-03-08 Lucky Invite Gym Stars ETC B03 XG Sr 9.325 2 9.550 2T 9.650 2 9.525 3 38.050 2
2019-02-15 Women's Midwest Open Gym Stars ETC 10 XG Senior B 9.125 7 9.500 1 9.425 5 9.575 4 37.625 1
2019-02-01 St. Valentines Classic Gym Stars ETC 5B XG 14+ yrs. 8.875 4 9.375 2 9.075 4 9.450 2 36.775 3
2019-01-11 St Jude Benefit Meet Gym Stars ETC 5C XG Sr B 9.600 1 9.500 3 9.400 1 9.175 5 37.675 1
2018-11-17 Paul Hamm Thanksgiving Class WOMENS Gym Stars ETC 8 XG Older 9.075 6T 9.625 3 9.150 3T 9.525 2 37.375 1
2018-04-26 Xcel Region 5 Championships Gym Stars ETC 2A XG:B All 9.075 24 9.075 31 9.400 6 9.350 15 36.900 19
2018-04-06 XCEL State Championships Gym Stars ETC 6B XG Sr B 8.950 2 9.600 5T 9.375 6 9.500 3T 37.425 2
2018-03-09 Lucky Invitational Gym Stars ETC B06 XG Sr 8.950 5 9.625 1 8.925 6 9.600 2T 37.100 2
2018-02-16 Big Classic Gym Stars ETC 9B XG Senior B 8.900 4T 9.425 5 9.500 2 9.625 2 37.450 2
2018-01-12 St Jude Benefit Meet Gym Stars ETC 8A XG SrA 8.900 7 9.625 3 9.450 2 9.300 4 37.275 2
2017-11-17 SCGA Classic Gym Stars ETC 5 XG Sr 8.675 7 9.150 3 7.700 8 9.300 1 34.825 4
2017-05-11 2017 Region 5 Xcel Championships Gym Stars ETC 1A GB State B 9.050 8T 9.250 6 8.400 32 9.225 19T 35.925 22T
2017-04-21 2017 Illinois Xcel State Championships Gym Stars ETC 3 XG Jr C 8.950 12T 9.625 1 9.050 6 9.625 1* 37.250 1T
2017-03-10 Lucky Invitational Gym Stars ETC B10 XG Sr A 8.550 14* 8.425 18 9.475 4 9.600 1 36.050 8T
2017-02-24 Kinetic Classic Gym Stars ETC 8 XG All Ages 8.700 21 9.675 2 9.125 14 9.175 16T 36.675 9
2017-02-10 IGI Chicago Style Gymnastics Meet Gym Stars ETC 631L XG JrC 9.100 7 9.300 6 7.600 16 9.300 7 35.300 11
2017-01-20 2017 Bravo Classic Gym Stars ETC 09A XG 12 8.625 14 9.500 3 8.775 9 9.150 14 36.050 12
Get your scores on
a t-shirt, pin, or hoodie

www.lazysuits.com